sensor_id;sensor_type;location;lat;lon;timestamp;pressure;altitude;pressure_sealevel;temperature;humidity
19259;BME280;9763;48.780;9.212;2023-03-22T00:02:26;98227.38;;;14.96;47.65
19259;BME280;9763;48.780;9.212;2023-03-22T00:05:56;98227.22;;;14.97;47.92
19259;BME280;9763;48.780;9.212;2023-03-22T00:09:20;98223.22;;;14.93;48.00
19259;BME280;9763;48.780;9.212;2023-03-22T00:12:44;98216.66;;;14.88;47.70
19259;BME280;9763;48.780;9.212;2023-03-22T00:16:10;98217.22;;;14.82;48.05
19259;BME280;9763;48.780;9.212;2023-03-22T00:19:34;98219.25;;;14.78;48.12
19259;BME280;9763;48.780;9.212;2023-03-22T00:22:59;98221.31;;;14.74;48.14
19259;BME280;9763;48.780;9.212;2023-03-22T00:26:23;98211.75;;;14.73;47.78
19259;BME280;9763;48.780;9.212;2023-03-22T00:29:47;98204.31;;;14.78;47.74
19259;BME280;9763;48.780;9.212;2023-03-22T00:33:12;98205.03;;;14.81;47.88
19259;BME280;9763;48.780;9.212;2023-03-22T00:36:36;98200.88;;;14.78;48.19
19259;BME280;9763;48.780;9.212;2023-03-22T00:40:00;98206.50;;;14.73;48.24
19259;BME280;9763;48.780;9.212;2023-03-22T00:43:25;98203.44;;;14.68;48.10
19259;BME280;9763;48.780;9.212;2023-03-22T00:46:49;98200.66;;;14.60;48.17
19259;BME280;9763;48.780;9.212;2023-03-22T00:50:14;98199.34;;;14.55;48.06
19259;BME280;9763;48.780;9.212;2023-03-22T00:53:38;98194.34;;;14.52;48.37
19259;BME280;9763;48.780;9.212;2023-03-22T00:57:05;98192.56;;;14.52;48.37
19259;BME280;9763;48.780;9.212;2023-03-22T01:00:29;98183.03;;;14.51;48.39
19259;BME280;9763;48.780;9.212;2023-03-22T01:03:55;98182.84;;;14.43;48.36
19259;BME280;9763;48.780;9.212;2023-03-22T01:07:21;98187.75;;;14.36;48.55
19259;BME280;9763;48.780;9.212;2023-03-22T01:10:45;98183.72;;;14.32;48.92
19259;BME280;9763;48.780;9.212;2023-03-22T01:14:09;98180.38;;;14.30;48.92
19259;BME280;9763;48.780;9.212;2023-03-22T01:17:35;98180.50;;;14.29;48.49
19259;BME280;9763;48.780;9.212;2023-03-22T01:20:59;98154.44;;;14.16;48.98
19259;BME280;9763;48.780;9.212;2023-03-22T01:24:25;98169.72;;;14.22;48.90
19259;BME280;9763;48.780;9.212;2023-03-22T01:27:49;98158.03;;;14.15;48.96
19259;BME280;9763;48.780;9.212;2023-03-22T01:31:12;98164.06;;;14.06;49.13
19259;BME280;9763;48.780;9.212;2023-03-22T01:34:36;98160.28;;;13.99;48.59
19259;BME280;9763;48.780;9.212;2023-03-22T01:38:01;98148.19;;;13.87;49.15
19259;BME280;9763;48.780;9.212;2023-03-22T01:41:28;98144.63;;;13.77;48.96
19259;BME280;9763;48.780;9.212;2023-03-22T01:45:31;98139.19;;;13.68;49.18
19259;BME280;9763;48.780;9.212;2023-03-22T01:48:56;98149.47;;;13.60;49.16
19259;BME280;9763;48.780;9.212;2023-03-22T01:52:21;98141.16;;;13.55;49.67
19259;BME280;9763;48.780;9.212;2023-03-22T01:55:53;98142.50;;;13.50;49.46
19259;BME280;9763;48.780;9.212;2023-03-22T01:59:24;98144.63;;;13.45;49.53
19259;BME280;9763;48.780;9.212;2023-03-22T02:03:12;98141.56;;;13.40;49.76
19259;BME280;9763;48.780;9.212;2023-03-22T02:06:42;98142.78;;;13.36;50.01
19259;BME280;9763;48.780;9.212;2023-03-22T02:10:13;98142.28;;;13.30;49.84
19259;BME280;9763;48.780;9.212;2023-03-22T02:14:00;98135.53;;;13.28;49.87
19259;BME280;9763;48.780;9.212;2023-03-22T02:17:59;98131.59;;;13.22;50.12
19259;BME280;9763;48.780;9.212;2023-03-22T02:21:55;98133.06;;;13.15;50.07
19259;BME280;9763;48.780;9.212;2023-03-22T02:25:39;98123.03;;;13.09;49.82
19259;BME280;9763;48.780;9.212;2023-03-22T02:29:14;98121.75;;;13.04;49.97
19259;BME280;9763;48.780;9.212;2023-03-22T02:33:04;98128.06;;;13.01;50.64
19259;BME280;9763;48.780;9.212;2023-03-22T02:36:53;98115.06;;;12.99;50.40
19259;BME280;9763;48.780;9.212;2023-03-22T02:40:31;98119.47;;;12.99;50.21
19259;BME280;9763;48.780;9.212;2023-03-22T02:44:07;98117.09;;;12.96;50.86
19259;BME280;9763;48.780;9.212;2023-03-22T02:47:38;98114.59;;;12.94;50.52
19259;BME280;9763;48.780;9.212;2023-03-22T02:51:06;98119.13;;;12.92;50.66
19259;BME280;9763;48.780;9.212;2023-03-22T02:54:36;98119.25;;;12.91;50.49
19259;BME280;9763;48.780;9.212;2023-03-22T02:58:11;98114.25;;;12.88;50.42
19259;BME280;9763;48.780;9.212;2023-03-22T03:01:40;98113.53;;;12.86;50.21
19259;BME280;9763;48.780;9.212;2023-03-22T03:05:07;98112.81;;;12.84;50.31
19259;BME280;9763;48.780;9.212;2023-03-22T03:08:33;98108.31;;;12.75;50.87
19259;BME280;9763;48.780;9.212;2023-03-22T03:11:58;98117.00;;;12.75;50.99
19259;BME280;9763;48.780;9.212;2023-03-22T03:15:23;98119.84;;;12.72;50.45
19259;BME280;9763;48.780;9.212;2023-03-22T03:18:55;98122.72;;;12.69;50.89
19259;BME280;9763;48.780;9.212;2023-03-22T03:22:31;98118.91;;;12.62;50.98
19259;BME280;9763;48.780;9.212;2023-03-22T03:26:02;98127.84;;;12.59;51.17
19259;BME280;9763;48.780;9.212;2023-03-22T03:29:32;98123.53;;;12.58;51.20
19259;BME280;9763;48.780;9.212;2023-03-22T03:33:05;98125.44;;;12.56;50.75
19259;BME280;9763;48.780;9.212;2023-03-22T03:36:34;98135.22;;;12.54;50.79
19259;BME280;9763;48.780;9.212;2023-03-22T03:40:04;98130.09;;;12.53;51.01
19259;BME280;9763;48.780;9.212;2023-03-22T03:43:31;98128.44;;;12.52;50.93
19259;BME280;9763;48.780;9.212;2023-03-22T03:46:57;98131.06;;;12.52;50.99
19259;BME280;9763;48.780;9.212;2023-03-22T03:50:24;98129.38;;;12.51;51.17
19259;BME280;9763;48.780;9.212;2023-03-22T03:53:50;98129.38;;;12.51;51.03
19259;BME280;9763;48.780;9.212;2023-03-22T03:57:15;98129.28;;;12.52;51.20
19259;BME280;9763;48.780;9.212;2023-03-22T04:00:38;98135.09;;;12.56;51.11
19259;BME280;9763;48.780;9.212;2023-03-22T04:04:16;98133.44;;;12.55;51.22
19259;BME280;9763;48.780;9.212;2023-03-22T04:07:45;98141.41;;;12.53;51.31
19259;BME280;9763;48.780;9.212;2023-03-22T04:11:09;98135.56;;;12.50;50.74
19259;BME280;9763;48.780;9.212;2023-03-22T04:14:34;98130.69;;;12.45;51.19
19259;BME280;9763;48.780;9.212;2023-03-22T04:18:06;98124.88;;;12.42;51.10
19259;BME280;9763;48.780;9.212;2023-03-22T04:21:31;98124.16;;;12.40;51.21
19259;BME280;9763;48.780;9.212;2023-03-22T04:24:58;98127.00;;;12.37;51.57
19259;BME280;9763;48.780;9.212;2023-03-22T04:28:24;98123.44;;;12.38;51.51
19259;BME280;9763;48.780;9.212;2023-03-22T04:31:48;98116.41;;;12.38;51.41
19259;BME280;9763;48.780;9.212;2023-03-22T04:35:18;98113.69;;;12.40;51.67
19259;BME280;9763;48.780;9.212;2023-03-22T04:38:42;98114.41;;;12.42;51.45
19259;BME280;9763;48.780;9.212;2023-03-22T04:42:14;98120.22;;;12.45;51.71
19259;BME280;9763;48.780;9.212;2023-03-22T04:45:38;98111.28;;;12.48;51.79
19259;BME280;9763;48.780;9.212;2023-03-22T04:49:05;98113.81;;;12.49;51.65
19259;BME280;9763;48.780;9.212;2023-03-22T04:52:33;98107.72;;;12.49;51.91
19259;BME280;9763;48.780;9.212;2023-03-22T04:55:57;98107.00;;;12.47;51.84
19259;BME280;9763;48.780;9.212;2023-03-22T04:59:25;98106.44;;;12.43;51.43
19259;BME280;9763;48.780;9.212;2023-03-22T05:02:49;98097.97;;;12.40;51.79
19259;BME280;9763;48.780;9.212;2023-03-22T05:06:22;98087.63;;;12.38;51.63
19259;BME280;9763;48.780;9.212;2023-03-22T05:10:00;98085.13;;;12.37;51.86
19259;BME280;9763;48.780;9.212;2023-03-22T05:13:26;98078.22;;;12.36;51.68
19259;BME280;9763;48.780;9.212;2023-03-22T05:16:51;98083.56;;;12.34;51.61
19259;BME280;9763;48.780;9.212;2023-03-22T05:20:15;98086.44;;;12.31;51.99
19259;BME280;9763;48.780;9.212;2023-03-22T05:23:45;98089.06;;;12.31;52.20
19259;BME280;9763;48.780;9.212;2023-03-22T05:27:13;98079.44;;;12.32;52.04
19259;BME280;9763;48.780;9.212;2023-03-22T05:30:37;98079.16;;;12.35;51.83
19259;BME280;9763;48.780;9.212;2023-03-22T05:34:15;98088.47;;;12.39;51.96
19259;BME280;9763;48.780;9.212;2023-03-22T05:37:39;98093.91;;;12.47;52.49
19259;BME280;9763;48.780;9.212;2023-03-22T05:41:04;98090.72;;;12.54;52.29
19259;BME280;9763;48.780;9.212;2023-03-22T05:44:29;98097.03;;;12.63;52.33
19259;BME280;9763;48.780;9.212;2023-03-22T05:48:02;98078.06;;;12.71;52.73
19259;BME280;9763;48.780;9.212;2023-03-22T05:51:28;98078.31;;;12.79;52.14
19259;BME280;9763;48.780;9.212;2023-03-22T05:54:52;98085.56;;;12.86;52.47
19259;BME280;9763;48.780;9.212;2023-03-22T05:58:15;98079.13;;;12.90;52.39
19259;BME280;9763;48.780;9.212;2023-03-22T06:01:42;98083.28;;;12.93;52.32
19259;BME280;9763;48.780;9.212;2023-03-22T06:05:15;98093.63;;;12.94;52.43
19259;BME280;9763;48.780;9.212;2023-03-22T06:08:41;98093.63;;;12.94;51.81
19259;BME280;9763;48.780;9.212;2023-03-22T06:12:06;98093.63;;;12.94;52.24
19259;BME280;9763;48.780;9.212;2023-03-22T06:15:30;98099.69;;;12.95;52.04
19259;BME280;9763;48.780;9.212;2023-03-22T06:19:02;98098.03;;;12.94;51.92
19259;BME280;9763;48.780;9.212;2023-03-22T06:22:26;98103.41;;;12.92;51.98
19259;BME280;9763;48.780;9.212;2023-03-22T06:25:53;98104.38;;;12.91;51.93
19259;BME280;9763;48.780;9.212;2023-03-22T06:29:18;98112.91;;;12.93;52.10
19259;BME280;9763;48.780;9.212;2023-03-22T06:32:44;98115.44;;;12.95;52.31
19259;BME280;9763;48.780;9.212;2023-03-22T06:36:09;98115.91;;;13.00;51.94
19259;BME280;9763;48.780;9.212;2023-03-22T06:39:47;98115.28;;;13.08;51.79
19259;BME280;9763;48.780;9.212;2023-03-22T06:43:15;98119.56;;;13.20;52.63
19259;BME280;9763;48.780;9.212;2023-03-22T06:46:42;98118.06;;;13.49;52.67
19259;BME280;9763;48.780;9.212;2023-03-22T06:50:23;98122.38;;;13.71;52.27
19259;BME280;9763;48.780;9.212;2023-03-22T06:53:58;98127.44;;;13.84;52.23
19259;BME280;9763;48.780;9.212;2023-03-22T06:57:23;98122.38;;;13.92;52.09
19259;BME280;9763;48.780;9.212;2023-03-22T07:00:48;98130.19;;;14.03;51.93
19259;BME280;9763;48.780;9.212;2023-03-22T07:04:14;98121.56;;;14.12;52.04
19259;BME280;9763;48.780;9.212;2023-03-22T07:07:39;98118.28;;;14.20;51.93
19259;BME280;9763;48.780;9.212;2023-03-22T07:11:04;98114.16;;;14.27;52.17
19259;BME280;9763;48.780;9.212;2023-03-22T07:14:30;98115.34;;;14.34;52.24
19259;BME280;9763;48.780;9.212;2023-03-22T07:18:04;98119.00;;;14.43;51.79
19259;BME280;9763;48.780;9.212;2023-03-22T07:21:29;98115.56;;;14.52;52.25
19259;BME280;9763;48.780;9.212;2023-03-22T07:24:59;98114.38;;;14.65;51.76
19259;BME280;9763;48.780;9.212;2023-03-22T07:28:27;98112.00;;;15.02;51.46
19259;BME280;9763;48.780;9.212;2023-03-22T07:31:52;98109.31;;;15.33;51.10
19259;BME280;9763;48.780;9.212;2023-03-22T07:35:21;98105.13;;;16.27;52.07
19259;BME280;9763;48.780;9.212;2023-03-22T07:38:48;98101.22;;;18.11;52.46
19259;BME280;9763;48.780;9.212;2023-03-22T07:42:18;98105.19;;;20.24;51.10
19259;BME280;9763;48.780;9.212;2023-03-22T07:46:01;98097.28;;;22.10;49.75
19259;BME280;9763;48.780;9.212;2023-03-22T07:49:43;98092.19;;;23.47;48.51
19259;BME280;9763;48.780;9.212;2023-03-22T07:53:18;98091.69;;;24.85;47.30
19259;BME280;9763;48.780;9.212;2023-03-22T07:56:41;98087.31;;;26.12;45.86
19259;BME280;9763;48.780;9.212;2023-03-22T08:00:08;98090.38;;;27.19;44.43
19259;BME280;9763;48.780;9.212;2023-03-22T08:03:41;98092.16;;;28.02;43.85
19259;BME280;9763;48.780;9.212;2023-03-22T08:07:21;98086.00;;;28.69;42.50
19259;BME280;9763;48.780;9.212;2023-03-22T08:10:49;98086.75;;;29.31;41.80
19259;BME280;9763;48.780;9.212;2023-03-22T08:14:13;98083.56;;;29.82;40.50
19259;BME280;9763;48.780;9.212;2023-03-22T08:17:43;98085.38;;;30.23;40.38
19259;BME280;9763;48.780;9.212;2023-03-22T08:21:14;98090.69;;;30.65;39.15
19259;BME280;9763;48.780;9.212;2023-03-22T08:24:39;98089.94;;;30.81;38.78
19259;BME280;9763;48.780;9.212;2023-03-22T08:28:09;98089.66;;;31.18;38.20
19259;BME280;9763;48.780;9.212;2023-03-22T08:31:34;98080.19;;;31.72;37.52
19259;BME280;9763;48.780;9.212;2023-03-22T08:34:58;98067.34;;;32.12;36.67
19259;BME280;9763;48.780;9.212;2023-03-22T08:38:22;98069.63;;;32.54;36.59
19259;BME280;9763;48.780;9.212;2023-03-22T08:41:48;98059.25;;;33.06;35.61
19259;BME280;9763;48.780;9.212;2023-03-22T08:45:13;98064.06;;;33.75;34.21
19259;BME280;9763;48.780;9.212;2023-03-22T08:48:45;98058.19;;;34.15;33.46
19259;BME280;9763;48.780;9.212;2023-03-22T08:52:17;98065.44;;;34.09;32.77
19259;BME280;9763;48.780;9.212;2023-03-22T08:55:50;98058.19;;;34.20;32.77
19259;BME280;9763;48.780;9.212;2023-03-22T08:59:27;98053.94;;;34.71;32.12
19259;BME280;9763;48.780;9.212;2023-03-22T09:03:12;98052.28;;;35.22;31.19
19259;BME280;9763;48.780;9.212;2023-03-22T09:06:36;98051.56;;;35.57;30.45
19259;BME280;9763;48.780;9.212;2023-03-22T09:10:07;98044.75;;;35.65;29.99
19259;BME280;9763;48.780;9.212;2023-03-22T09:13:34;98054.31;;;35.88;29.42
19259;BME280;9763;48.780;9.212;2023-03-22T09:16:59;98037.47;;;36.06;29.35
19259;BME280;9763;48.780;9.212;2023-03-22T09:20:25;98039.38;;;36.11;27.99
19259;BME280;9763;48.780;9.212;2023-03-22T09:23:49;98029.28;;;35.50;27.35
19259;BME280;9763;48.780;9.212;2023-03-22T09:27:18;98025.09;;;35.02;27.18
19259;BME280;9763;48.780;9.212;2023-03-22T09:30:44;98035.34;;;34.90;27.18
19259;BME280;9763;48.780;9.212;2023-03-22T09:34:11;98029.03;;;34.79;26.92
19259;BME280;9763;48.780;9.212;2023-03-22T09:37:36;98018.59;;;35.13;26.85
19259;BME280;9763;48.780;9.212;2023-03-22T09:41:05;98019.22;;;35.51;25.89
19259;BME280;9763;48.780;9.212;2023-03-22T09:44:35;98018.94;;;35.42;26.23
19259;BME280;9763;48.780;9.212;2023-03-22T09:48:05;98011.88;;;35.31;25.93
19259;BME280;9763;48.780;9.212;2023-03-22T09:51:39;98005.09;;;35.44;25.16
19259;BME280;9763;48.780;9.212;2023-03-22T09:55:16;98000.75;;;35.53;24.75
19259;BME280;9763;48.780;9.212;2023-03-22T09:58:46;97999.94;;;35.67;24.66
19259;BME280;9763;48.780;9.212;2023-03-22T10:02:34;97992.09;;;35.91;24.72
19259;BME280;9763;48.780;9.212;2023-03-22T10:06:04;97999.66;;;35.64;24.24
19259;BME280;9763;48.780;9.212;2023-03-22T10:09:36;97981.91;;;34.95;24.39
19259;BME280;9763;48.780;9.212;2023-03-22T10:13:13;97972.41;;;34.93;24.59
19259;BME280;9763;48.780;9.212;2023-03-22T10:16:42;97970.38;;;34.63;24.25
19259;BME280;9763;48.780;9.212;2023-03-22T10:20:12;97962.16;;;34.01;24.08
19259;BME280;9763;48.780;9.212;2023-03-22T10:23:44;97964.75;;;33.00;24.53
19259;BME280;9763;48.780;9.212;2023-03-22T10:27:14;97974.56;;;32.40;25.46
19259;BME280;9763;48.780;9.212;2023-03-22T10:30:41;97972.03;;;31.95;25.67
19259;BME280;9763;48.780;9.212;2023-03-22T10:34:09;97967.84;;;32.04;26.14
19259;BME280;9763;48.780;9.212;2023-03-22T10:37:35;97964.41;;;32.47;25.32
19259;BME280;9763;48.780;9.212;2023-03-22T10:41:01;97955.84;;;33.26;25.35
19259;BME280;9763;48.780;9.212;2023-03-22T10:44:27;97951.44;;;34.21;24.66
19259;BME280;9763;48.780;9.212;2023-03-22T10:47:57;97945.56;;;35.07;24.09
19259;BME280;9763;48.780;9.212;2023-03-22T10:51:28;97944.78;;;36.07;23.74
19259;BME280;9763;48.780;9.212;2023-03-22T10:54:53;97934.63;;;37.03;23.19
19259;BME280;9763;48.780;9.212;2023-03-22T10:58:29;97933.19;;;37.83;23.13
19259;BME280;9763;48.780;9.212;2023-03-22T11:01:53;97937.03;;;38.11;22.50
19259;BME280;9763;48.780;9.212;2023-03-22T11:05:24;97914.81;;;37.94;22.36
19259;BME280;9763;48.780;9.212;2023-03-22T11:08:50;97923.25;;;37.35;22.21
19259;BME280;9763;48.780;9.212;2023-03-22T11:12:15;97912.78;;;37.08;22.43
19259;BME280;9763;48.780;9.212;2023-03-22T11:15:40;97909.88;;;37.38;22.43
19259;BME280;9763;48.780;9.212;2023-03-22T11:19:05;97912.63;;;37.33;22.55
19259;BME280;9763;48.780;9.212;2023-03-22T11:22:34;97922.81;;;36.68;22.57
19259;BME280;9763;48.780;9.212;2023-03-22T11:26:03;97904.59;;;35.94;22.52
19259;BME280;9763;48.780;9.212;2023-03-22T11:29:28;97900.78;;;35.04;22.64
19259;BME280;9763;48.780;9.212;2023-03-22T11:33:15;97900.00;;;34.26;23.63
19259;BME280;9763;48.780;9.212;2023-03-22T11:36:43;97892.25;;;33.97;23.45
19259;BME280;9763;48.780;9.212;2023-03-22T11:40:16;97895.41;;;33.84;23.24
19259;BME280;9763;48.780;9.212;2023-03-22T11:43:42;97889.16;;;33.47;22.54
19259;BME280;9763;48.780;9.212;2023-03-22T11:47:12;97892.88;;;32.33;23.45
19259;BME280;9763;48.780;9.212;2023-03-22T11:50:38;97893.09;;;31.21;24.49
19259;BME280;9763;48.780;9.212;2023-03-22T11:54:09;97882.19;;;30.42;24.36
19259;BME280;9763;48.780;9.212;2023-03-22T11:57:38;97874.78;;;29.98;24.80
19259;BME280;9763;48.780;9.212;2023-03-22T12:01:05;97872.22;;;29.91;24.47
19259;BME280;9763;48.780;9.212;2023-03-22T12:04:35;97878.53;;;29.85;24.84
19259;BME280;9763;48.780;9.212;2023-03-22T12:08:05;97866.84;;;29.80;24.47
19259;BME280;9763;48.780;9.212;2023-03-22T12:11:36;97861.25;;;29.58;25.10
19259;BME280;9763;48.780;9.212;2023-03-22T12:15:09;97858.56;;;29.46;25.24
19259;BME280;9763;48.780;9.212;2023-03-22T12:18:40;97854.88;;;29.29;25.44
19259;BME280;9763;48.780;9.212;2023-03-22T12:22:10;97854.72;;;29.00;25.57
19259;BME280;9763;48.780;9.212;2023-03-22T12:25:35;97867.09;;;28.60;25.22
19259;BME280;9763;48.780;9.212;2023-03-22T12:29:03;97845.53;;;28.18;24.86
19259;BME280;9763;48.780;9.212;2023-03-22T12:32:32;97859.38;;;27.79;24.79
19259;BME280;9763;48.780;9.212;2023-03-22T12:35:57;97854.38;;;27.64;24.85
19259;BME280;9763;48.780;9.212;2023-03-22T12:39:28;97856.75;;;27.72;24.77
19259;BME280;9763;48.780;9.212;2023-03-22T12:43:05;97848.22;;;28.18;25.00
19259;BME280;9763;48.780;9.212;2023-03-22T12:46:34;97848.97;;;28.55;24.52
19259;BME280;9763;48.780;9.212;2023-03-22T12:50:02;97847.13;;;28.86;24.30
19259;BME280;9763;48.780;9.212;2023-03-22T12:53:33;97825.97;;;29.13;23.83
19259;BME280;9763;48.780;9.212;2023-03-22T12:57:04;97841.16;;;28.95;23.92
19259;BME280;9763;48.780;9.212;2023-03-22T13:00:33;97835.94;;;28.71;23.75
19259;BME280;9763;48.780;9.212;2023-03-22T13:03:58;97825.22;;;28.52;24.15
19259;BME280;9763;48.780;9.212;2023-03-22T13:07:37;97833.22;;;28.59;23.55
19259;BME280;9763;48.780;9.212;2023-03-22T13:11:04;97819.41;;;28.85;23.06
19259;BME280;9763;48.780;9.212;2023-03-22T13:14:54;97827.22;;;28.87;23.41
19259;BME280;9763;48.780;9.212;2023-03-22T13:18:29;97808.47;;;28.68;23.15
19259;BME280;9763;48.780;9.212;2023-03-22T13:22:17;97813.31;;;28.18;24.12
19259;BME280;9763;48.780;9.212;2023-03-22T13:25:59;97805.34;;;27.57;24.33
19259;BME280;9763;48.780;9.212;2023-03-22T13:29:32;97800.56;;;26.91;24.56
19259;BME280;9763;48.780;9.212;2023-03-22T13:32:59;97802.59;;;26.26;25.15
19259;BME280;9763;48.780;9.212;2023-03-22T13:36:25;97799.13;;;25.81;26.25
19259;BME280;9763;48.780;9.212;2023-03-22T13:39:54;97797.94;;;25.51;26.54
19259;BME280;9763;48.780;9.212;2023-03-22T13:43:26;97785.22;;;25.26;26.74
19259;BME280;9763;48.780;9.212;2023-03-22T13:46:52;97786.31;;;24.99;26.99
19259;BME280;9763;48.780;9.212;2023-03-22T13:50:19;97783.16;;;24.75;27.20
19259;BME280;9763;48.780;9.212;2023-03-22T13:53:54;97783.19;;;24.62;27.24
19259;BME280;9763;48.780;9.212;2023-03-22T13:57:46;97778.84;;;24.55;26.98
19259;BME280;9763;48.780;9.212;2023-03-22T14:01:16;97780.06;;;24.52;27.77
19259;BME280;9763;48.780;9.212;2023-03-22T14:04:46;97776.00;;;24.50;27.74
19259;BME280;9763;48.780;9.212;2023-03-22T14:08:19;97774.53;;;24.47;27.51
19259;BME280;9763;48.780;9.212;2023-03-22T14:11:45;97770.00;;;24.34;27.78
19259;BME280;9763;48.780;9.212;2023-03-22T14:15:15;97776.31;;;24.20;27.67
19259;BME280;9763;48.780;9.212;2023-03-22T14:18:44;97764.38;;;24.10;27.84
19259;BME280;9763;48.780;9.212;2023-03-22T14:22:15;97762.31;;;24.05;28.07
19259;BME280;9763;48.780;9.212;2023-03-22T14:25:42;97756.56;;;24.01;28.53
19259;BME280;9763;48.780;9.212;2023-03-22T14:29:12;97749.16;;;23.97;28.06
19259;BME280;9763;48.780;9.212;2023-03-22T14:32:35;97749.97;;;23.91;28.46
19259;BME280;9763;48.780;9.212;2023-03-22T14:36:09;97748.50;;;23.82;27.94
19259;BME280;9763;48.780;9.212;2023-03-22T14:39:36;97760.16;;;23.74;28.58
19259;BME280;9763;48.780;9.212;2023-03-22T14:43:22;97759.50;;;23.65;28.49
19259;BME280;9763;48.780;9.212;2023-03-22T14:46:45;97761.31;;;23.58;28.57
19259;BME280;9763;48.780;9.212;2023-03-22T14:50:13;97754.94;;;23.53;28.88
19259;BME280;9763;48.780;9.212;2023-03-22T14:53:38;97751.81;;;23.49;28.74
19259;BME280;9763;48.780;9.212;2023-03-22T14:57:02;97759.56;;;23.44;28.90
19259;BME280;9763;48.780;9.212;2023-03-22T15:00:26;97756.69;;;23.39;28.99
19259;BME280;9763;48.780;9.212;2023-03-22T15:07:17;97748.88;;;23.38;28.77
19259;BME280;9763;48.780;9.212;2023-03-22T15:10:42;97735.75;;;23.36;29.37
19259;BME280;9763;48.780;9.212;2023-03-22T15:14:06;97736.97;;;23.33;28.90
19259;BME280;9763;48.780;9.212;2023-03-22T15:17:30;97735.75;;;23.29;28.94
19259;BME280;9763;48.780;9.212;2023-03-22T15:20:58;97732.84;;;23.24;29.06
19259;BME280;9763;48.780;9.212;2023-03-22T15:24:28;97730.97;;;23.18;29.64
19259;BME280;9763;48.780;9.212;2023-03-22T15:27:52;97728.25;;;23.12;29.74
19259;BME280;9763;48.780;9.212;2023-03-22T15:31:24;97719.59;;;23.03;29.94
19259;BME280;9763;48.780;9.212;2023-03-22T15:34:50;97726.72;;;22.96;30.09
19259;BME280;9763;48.780;9.212;2023-03-22T15:38:14;97719.50;;;22.90;30.06
19259;BME280;9763;48.780;9.212;2023-03-22T15:41:38;97719.25;;;22.85;30.21
19259;BME280;9763;48.780;9.212;2023-03-22T15:45:10;97721.69;;;22.80;30.44
19259;BME280;9763;48.780;9.212;2023-03-22T15:48:41;97722.91;;;22.77;30.39
19259;BME280;9763;48.780;9.212;2023-03-22T15:52:13;97722.25;;;22.75;30.52
19259;BME280;9763;48.780;9.212;2023-03-22T15:55:38;97720.75;;;22.66;30.19
19259;BME280;9763;48.780;9.212;2023-03-22T15:59:03;97722.50;;;22.59;30.72
19259;BME280;9763;48.780;9.212;2023-03-22T16:02:29;97727.16;;;22.50;30.78
19259;BME280;9763;48.780;9.212;2023-03-22T16:05:53;97729.97;;;22.42;30.32
19259;BME280;9763;48.780;9.212;2023-03-22T16:09:17;97731.94;;;22.34;30.65
19259;BME280;9763;48.780;9.212;2023-03-22T16:12:39;97736.34;;;22.26;30.43
19259;BME280;9763;48.780;9.212;2023-03-22T16:16:03;97745.09;;;22.20;30.54
19259;BME280;9763;48.780;9.212;2023-03-22T16:19:27;97746.03;;;22.13;30.41
19259;BME280;9763;48.780;9.212;2023-03-22T16:22:50;97740.19;;;22.03;30.32
19259;BME280;9763;48.780;9.212;2023-03-22T16:26:15;97748.63;;;21.91;31.10
19259;BME280;9763;48.780;9.212;2023-03-22T16:29:38;97757.09;;;21.80;31.01
19259;BME280;9763;48.780;9.212;2023-03-22T16:33:01;97751.25;;;21.70;31.26
19259;BME280;9763;48.780;9.212;2023-03-22T16:36:25;97764.63;;;21.62;31.40
19259;BME280;9763;48.780;9.212;2023-03-22T16:39:48;97769.22;;;21.53;31.54
19259;BME280;9763;48.780;9.212;2023-03-22T16:43:11;97763.66;;;21.48;30.97
19259;BME280;9763;48.780;9.212;2023-03-22T16:46:34;97763.53;;;21.42;31.46
19259;BME280;9763;48.780;9.212;2023-03-22T16:49:57;97760.16;;;21.33;31.35
19259;BME280;9763;48.780;9.212;2023-03-22T16:53:21;97760.88;;;21.27;31.16
19259;BME280;9763;48.780;9.212;2023-03-22T16:56:44;97762.81;;;21.18;31.74
19259;BME280;9763;48.780;9.212;2023-03-22T17:00:08;97760.22;;;21.10;31.64
19259;BME280;9763;48.780;9.212;2023-03-22T17:03:31;97759.28;;;21.03;32.06
19259;BME280;9763;48.780;9.212;2023-03-22T17:06:54;97758.38;;;20.96;31.65
19259;BME280;9763;48.780;9.212;2023-03-22T17:10:19;97758.09;;;20.91;31.80
19259;BME280;9763;48.780;9.212;2023-03-22T17:13:42;97765.97;;;20.84;31.90
19259;BME280;9763;48.780;9.212;2023-03-22T17:17:04;97773.78;;;20.78;32.42
19259;BME280;9763;48.780;9.212;2023-03-22T17:20:29;97744.66;;;20.55;32.55
19259;BME280;9763;48.780;9.212;2023-03-22T17:23:51;97766.00;;;20.62;32.88
19259;BME280;9763;48.780;9.212;2023-03-22T17:27:16;97768.06;;;20.52;32.33
19259;BME280;9763;48.780;9.212;2023-03-22T17:30:40;97763.19;;;20.40;32.91
19259;BME280;9763;48.780;9.212;2023-03-22T17:34:02;97761.94;;;20.28;33.14
19259;BME280;9763;48.780;9.212;2023-03-22T17:37:25;97771.75;;;20.20;32.53
19259;BME280;9763;48.780;9.212;2023-03-22T17:40:48;97775.63;;;20.09;33.02
19259;BME280;9763;48.780;9.212;2023-03-22T17:44:12;97771.06;;;19.95;32.69
19259;BME280;9763;48.780;9.212;2023-03-22T17:47:35;97773.25;;;19.91;33.11
19259;BME280;9763;48.780;9.212;2023-03-22T17:50:58;97773.09;;;19.85;33.40
19259;BME280;9763;48.780;9.212;2023-03-22T17:54:21;97767.88;;;19.76;33.39
19259;BME280;9763;48.780;9.212;2023-03-22T17:57:44;97765.88;;;19.70;33.62
19259;BME280;9763;48.780;9.212;2023-03-22T18:01:11;97772.56;;;19.66;33.41
19259;BME280;9763;48.780;9.212;2023-03-22T18:04:33;97787.13;;;19.62;33.44
19259;BME280;9763;48.780;9.212;2023-03-22T18:07:56;97783.31;;;19.57;33.75
19259;BME280;9763;48.780;9.212;2023-03-22T18:11:19;97784.69;;;19.53;33.70
19259;BME280;9763;48.780;9.212;2023-03-22T18:14:42;97786.97;;;19.48;33.72
19259;BME280;9763;48.780;9.212;2023-03-22T18:18:06;97788.34;;;19.43;34.29
19259;BME280;9763;48.780;9.212;2023-03-22T18:21:30;97793.28;;;19.38;34.15
19259;BME280;9763;48.780;9.212;2023-03-22T18:24:53;97787.88;;;19.32;33.90
19259;BME280;9763;48.780;9.212;2023-03-22T18:28:16;97798.47;;;19.24;34.33
19259;BME280;9763;48.780;9.212;2023-03-22T18:31:38;97804.44;;;19.18;34.26
19259;BME280;9763;48.780;9.212;2023-03-22T18:35:03;97805.44;;;19.08;34.62
19259;BME280;9763;48.780;9.212;2023-03-22T18:38:26;97783.16;;;18.87;34.78
19259;BME280;9763;48.780;9.212;2023-03-22T18:41:49;97809.75;;;18.93;34.34